sensor_id;sensor_type;location;lat;lon;timestamp;P1;durP1;ratioP1;P2;durP2;ratioP2
27357;SDS011;14831;50.474;7.616;2022-07-11T00:04:54;6.7;;;4.6;;
27357;SDS011;14831;50.474;7.616;2022-07-11T00:09:53;6.7;;;4.6;;
27357;SDS011;14831;50.474;7.616;2022-07-11T00:14:53;6.7;;;4.6;;
27357;SDS011;14831;50.474;7.616;2022-07-11T00:19:54;6.2;;;4.2;;
27357;SDS011;14831;50.474;7.616;2022-07-11T00:24:53;6.2;;;4.2;;
27357;SDS011;14831;50.474;7.616;2022-07-11T00:29:53;6.2;;;4.2;;
27357;SDS011;14831;50.474;7.616;2022-07-11T00:34:53;6.2;;;4.2;;
27357;SDS011;14831;50.474;7.616;2022-07-11T00:39:53;6.2;;;4.2;;
27357;SDS011;14831;50.474;7.616;2022-07-11T00:44:53;6.2;;;4.2;;
27357;SDS011;14831;50.474;7.616;2022-07-11T00:49:55;6.6;;;4.4;;
27357;SDS011;14831;50.474;7.616;2022-07-11T00:54:53;6.6;;;4.4;;
27357;SDS011;14831;50.474;7.616;2022-07-11T00:59:53;6.6;;;4.4;;
27357;SDS011;14831;50.474;7.616;2022-07-11T01:04:53;6.6;;;4.4;;
27357;SDS011;14831;50.474;7.616;2022-07-11T01:09:53;6.6;;;4.4;;
27357;SDS011;14831;50.474;7.616;2022-07-11T01:14:54;6.6;;;4.4;;
27357;SDS011;14831;50.474;7.616;2022-07-11T01:19:53;6.8;;;4.6;;
27357;SDS011;14831;50.474;7.616;2022-07-11T01:24:54;6.8;;;4.6;;
27357;SDS011;14831;50.474;7.616;2022-07-11T01:29:53;6.8;;;4.6;;
27357;SDS011;14831;50.474;7.616;2022-07-11T01:34:53;6.8;;;4.6;;
27357;SDS011;14831;50.474;7.616;2022-07-11T01:39:53;6.8;;;4.6;;
27357;SDS011;14831;50.474;7.616;2022-07-11T01:44:53;6.8;;;4.6;;
27357;SDS011;14831;50.474;7.616;2022-07-11T01:49:53;5.0;;;4.1;;
27357;SDS011;14831;50.474;7.616;2022-07-11T01:54:53;5.0;;;4.1;;
27357;SDS011;14831;50.474;7.616;2022-07-11T01:59:53;5.0;;;4.1;;
27357;SDS011;14831;50.474;7.616;2022-07-11T02:04:53;5.0;;;4.1;;
27357;SDS011;14831;50.474;7.616;2022-07-11T02:09:53;5.0;;;4.1;;
27357;SDS011;14831;50.474;7.616;2022-07-11T02:14:53;5.0;;;4.1;;
27357;SDS011;14831;50.474;7.616;2022-07-11T02:19:53;5.8;;;4.0;;
27357;SDS011;14831;50.474;7.616;2022-07-11T02:24:53;5.8;;;4.0;;
27357;SDS011;14831;50.474;7.616;2022-07-11T02:29:53;5.8;;;4.0;;
27357;SDS011;14831;50.474;7.616;2022-07-11T02:34:53;5.8;;;4.0;;
27357;SDS011;14831;50.474;7.616;2022-07-11T02:39:53;5.8;;;4.0;;
27357;SDS011;14831;50.474;7.616;2022-07-11T02:44:53;5.8;;;4.0;;
27357;SDS011;14831;50.474;7.616;2022-07-11T02:49:53;5.3;;;4.5;;
27357;SDS011;14831;50.474;7.616;2022-07-11T02:54:53;5.3;;;4.5;;
27357;SDS011;14831;50.474;7.616;2022-07-11T02:59:53;5.3;;;4.5;;
27357;SDS011;14831;50.474;7.616;2022-07-11T03:04:53;5.3;;;4.5;;
27357;SDS011;14831;50.474;7.616;2022-07-11T03:09:54;5.3;;;4.5;;
27357;SDS011;14831;50.474;7.616;2022-07-11T03:14:53;5.3;;;4.5;;
27357;SDS011;14831;50.474;7.616;2022-07-11T03:19:54;6.3;;;4.1;;
27357;SDS011;14831;50.474;7.616;2022-07-11T03:24:53;6.3;;;4.1;;
27357;SDS011;14831;50.474;7.616;2022-07-11T03:29:54;6.3;;;4.1;;
27357;SDS011;14831;50.474;7.616;2022-07-11T03:34:53;6.3;;;4.1;;
27357;SDS011;14831;50.474;7.616;2022-07-11T03:39:53;6.3;;;4.1;;
27357;SDS011;14831;50.474;7.616;2022-07-11T03:44:53;6.3;;;4.1;;
27357;SDS011;14831;50.474;7.616;2022-07-11T03:49:53;5.7;;;4.1;;
27357;SDS011;14831;50.474;7.616;2022-07-11T03:54:54;5.7;;;4.1;;
27357;SDS011;14831;50.474;7.616;2022-07-11T03:59:53;5.7;;;4.1;;
27357;SDS011;14831;50.474;7.616;2022-07-11T04:04:53;5.7;;;4.1;;
27357;SDS011;14831;50.474;7.616;2022-07-11T04:09:53;5.7;;;4.1;;
27357;SDS011;14831;50.474;7.616;2022-07-11T04:14:53;5.7;;;4.1;;
27357;SDS011;14831;50.474;7.616;2022-07-11T04:19:54;4.2;;;3.8;;
27357;SDS011;14831;50.474;7.616;2022-07-11T04:24:53;4.2;;;3.8;;
27357;SDS011;14831;50.474;7.616;2022-07-11T04:29:53;4.2;;;3.8;;
27357;SDS011;14831;50.474;7.616;2022-07-11T04:34:53;4.2;;;3.8;;
27357;SDS011;14831;50.474;7.616;2022-07-11T04:39:53;4.2;;;3.8;;
27357;SDS011;14831;50.474;7.616;2022-07-11T04:44:54;4.2;;;3.8;;
27357;SDS011;14831;50.474;7.616;2022-07-11T04:49:53;5.5;;;4.1;;
27357;SDS011;14831;50.474;7.616;2022-07-11T04:54:54;5.5;;;4.1;;
27357;SDS011;14831;50.474;7.616;2022-07-11T04:59:54;5.5;;;4.1;;
27357;SDS011;14831;50.474;7.616;2022-07-11T05:04:53;5.5;;;4.1;;
27357;SDS011;14831;50.474;7.616;2022-07-11T05:09:54;5.5;;;4.1;;
27357;SDS011;14831;50.474;7.616;2022-07-11T05:14:54;5.5;;;4.1;;
27357;SDS011;14831;50.474;7.616;2022-07-11T05:19:54;8.6;;;5.1;;
27357;SDS011;14831;50.474;7.616;2022-07-11T05:24:53;8.6;;;5.1;;
27357;SDS011;14831;50.474;7.616;2022-07-11T05:29:53;8.6;;;5.1;;
27357;SDS011;14831;50.474;7.616;2022-07-11T05:34:54;8.6;;;5.1;;
27357;SDS011;14831;50.474;7.616;2022-07-11T05:39:54;8.6;;;5.1;;
27357;SDS011;14831;50.474;7.616;2022-07-11T05:44:53;8.6;;;5.1;;
27357;SDS011;14831;50.474;7.616;2022-07-11T05:49:54;8.3;;;5.9;;
27357;SDS011;14831;50.474;7.616;2022-07-11T05:54:54;8.3;;;5.9;;
27357;SDS011;14831;50.474;7.616;2022-07-11T05:59:53;8.3;;;5.9;;
27357;SDS011;14831;50.474;7.616;2022-07-11T06:04:54;8.3;;;5.9;;
27357;SDS011;14831;50.474;7.616;2022-07-11T06:09:54;8.3;;;5.9;;
27357;SDS011;14831;50.474;7.616;2022-07-11T06:14:54;8.3;;;5.9;;
27357;SDS011;14831;50.474;7.616;2022-07-11T06:19:54;12.9;;;8.8;;
27357;SDS011;14831;50.474;7.616;2022-07-11T06:24:54;12.9;;;8.8;;
27357;SDS011;14831;50.474;7.616;2022-07-11T06:29:54;12.9;;;8.8;;
27357;SDS011;14831;50.474;7.616;2022-07-11T06:34:54;12.9;;;8.8;;
27357;SDS011;14831;50.474;7.616;2022-07-11T06:39:54;12.9;;;8.8;;
27357;SDS011;14831;50.474;7.616;2022-07-11T06:44:54;12.9;;;8.8;;
27357;SDS011;14831;50.474;7.616;2022-07-11T06:49:54;23.3;;;13.7;;
27357;SDS011;14831;50.474;7.616;2022-07-11T06:54:54;23.3;;;13.7;;
27357;SDS011;14831;50.474;7.616;2022-07-11T06:59:53;23.3;;;13.7;;
27357;SDS011;14831;50.474;7.616;2022-07-11T07:04:53;23.3;;;13.7;;
27357;SDS011;14831;50.474;7.616;2022-07-11T07:09:54;23.3;;;13.7;;
27357;SDS011;14831;50.474;7.616;2022-07-11T07:14:53;23.3;;;13.7;;
27357;SDS011;14831;50.474;7.616;2022-07-11T07:19:53;19.9;;;15.3;;
27357;SDS011;14831;50.474;7.616;2022-07-11T07:24:53;19.9;;;15.3;;
27357;SDS011;14831;50.474;7.616;2022-07-11T07:29:53;19.9;;;15.3;;
27357;SDS011;14831;50.474;7.616;2022-07-11T07:34:53;19.9;;;15.3;;
27357;SDS011;14831;50.474;7.616;2022-07-11T07:39:54;19.9;;;15.3;;
27357;SDS011;14831;50.474;7.616;2022-07-11T07:44:53;19.9;;;15.3;;
27357;SDS011;14831;50.474;7.616;2022-07-11T07:49:53;16.0;;;12.3;;
27357;SDS011;14831;50.474;7.616;2022-07-11T07:54:53;16.0;;;12.3;;
27357;SDS011;14831;50.474;7.616;2022-07-11T07:59:53;16.0;;;12.3;;
27357;SDS011;14831;50.474;7.616;2022-07-11T08:04:53;16.0;;;12.3;;
27357;SDS011;14831;50.474;7.616;2022-07-11T08:09:53;16.0;;;12.3;;
27357;SDS011;14831;50.474;7.616;2022-07-11T08:14:53;16.0;;;12.3;;
27357;SDS011;14831;50.474;7.616;2022-07-11T08:19:53;10.0;;;8.5;;
27357;SDS011;14831;50.474;7.616;2022-07-11T08:24:53;10.0;;;8.5;;
27357;SDS011;14831;50.474;7.616;2022-07-11T08:29:53;10.0;;;8.5;;
27357;SDS011;14831;50.474;7.616;2022-07-11T08:34:53;10.0;;;8.5;;
27357;SDS011;14831;50.474;7.616;2022-07-11T08:39:54;10.0;;;8.5;;
27357;SDS011;14831;50.474;7.616;2022-07-11T08:44:55;10.0;;;8.5;;
27357;SDS011;14831;50.474;7.616;2022-07-11T08:49:53;10.7;;;8.2;;
27357;SDS011;14831;50.474;7.616;2022-07-11T08:54:53;10.7;;;8.2;;
27357;SDS011;14831;50.474;7.616;2022-07-11T08:59:55;10.7;;;8.2;;
27357;SDS011;14831;50.474;7.616;2022-07-11T09:04:53;10.7;;;8.2;;
27357;SDS011;14831;50.474;7.616;2022-07-11T09:09:53;10.7;;;8.2;;
27357;SDS011;14831;50.474;7.616;2022-07-11T09:14:53;10.7;;;8.2;;
27357;SDS011;14831;50.474;7.616;2022-07-11T09:19:54;8.8;;;6.4;;
27357;SDS011;14831;50.474;7.616;2022-07-11T09:24:55;8.8;;;6.4;;
27357;SDS011;14831;50.474;7.616;2022-07-11T09:29:58;8.8;;;6.4;;
27357;SDS011;14831;50.474;7.616;2022-07-11T09:34:59;8.8;;;6.4;;
27357;SDS011;14831;50.474;7.616;2022-07-11T09:40:09;8.8;;;6.4;;
27357;SDS011;14831;50.474;7.616;2022-07-11T09:45:10;8.8;;;6.4;;
27357;SDS011;14831;50.474;7.616;2022-07-11T09:49:53;7.1;;;6.3;;
27357;SDS011;14831;50.474;7.616;2022-07-11T09:54:54;7.1;;;6.3;;
27357;SDS011;14831;50.474;7.616;2022-07-11T09:59:55;7.1;;;6.3;;
27357;SDS011;14831;50.474;7.616;2022-07-11T10:04:54;7.1;;;6.3;;
27357;SDS011;14831;50.474;7.616;2022-07-11T10:09:53;7.1;;;6.3;;
27357;SDS011;14831;50.474;7.616;2022-07-11T10:14:54;7.1;;;6.3;;
27357;SDS011;14831;50.474;7.616;2022-07-11T10:19:59;7.6;;;5.8;;
27357;SDS011;14831;50.474;7.616;2022-07-11T10:24:58;7.6;;;5.8;;
27357;SDS011;14831;50.474;7.616;2022-07-11T10:29:53;7.6;;;5.8;;
27357;SDS011;14831;50.474;7.616;2022-07-11T10:35:10;7.6;;;5.8;;
27357;SDS011;14831;50.474;7.616;2022-07-11T10:39:58;7.6;;;5.8;;
27357;SDS011;14831;50.474;7.616;2022-07-11T10:44:54;7.6;;;5.8;;
27357;SDS011;14831;50.474;7.616;2022-07-11T10:49:54;5.8;;;5.2;;
27357;SDS011;14831;50.474;7.616;2022-07-11T10:55:03;5.8;;;5.2;;
27357;SDS011;14831;50.474;7.616;2022-07-11T10:59:55;5.8;;;5.2;;
27357;SDS011;14831;50.474;7.616;2022-07-11T11:04:54;5.8;;;5.2;;
27357;SDS011;14831;50.474;7.616;2022-07-11T11:09:53;5.8;;;5.2;;
27357;SDS011;14831;50.474;7.616;2022-07-11T11:15:31;5.8;;;5.2;;
27357;SDS011;14831;50.474;7.616;2022-07-11T11:19:54;5.3;;;4.8;;
27357;SDS011;14831;50.474;7.616;2022-07-11T11:24:55;5.3;;;4.8;;
27357;SDS011;14831;50.474;7.616;2022-07-11T11:29:54;5.3;;;4.8;;
27357;SDS011;14831;50.474;7.616;2022-07-11T11:34:53;5.3;;;4.8;;
27357;SDS011;14831;50.474;7.616;2022-07-11T11:39:57;5.3;;;4.8;;
27357;SDS011;14831;50.474;7.616;2022-07-11T11:44:56;5.3;;;4.8;;
27357;SDS011;14831;50.474;7.616;2022-07-11T11:49:53;5.4;;;4.7;;
27357;SDS011;14831;50.474;7.616;2022-07-11T11:54:55;5.4;;;4.7;;
27357;SDS011;14831;50.474;7.616;2022-07-11T11:59:53;5.4;;;4.7;;
27357;SDS011;14831;50.474;7.616;2022-07-11T12:04:54;5.4;;;4.7;;
27357;SDS011;14831;50.474;7.616;2022-07-11T12:09:55;5.4;;;4.7;;
27357;SDS011;14831;50.474;7.616;2022-07-11T12:14:54;5.4;;;4.7;;
27357;SDS011;14831;50.474;7.616;2022-07-11T12:19:53;5.1;;;4.6;;
27357;SDS011;14831;50.474;7.616;2022-07-11T12:24:54;5.1;;;4.6;;
27357;SDS011;14831;50.474;7.616;2022-07-11T12:29:53;5.1;;;4.6;;
27357;SDS011;14831;50.474;7.616;2022-07-11T12:34:53;5.1;;;4.6;;
27357;SDS011;14831;50.474;7.616;2022-07-11T12:39:55;5.1;;;4.6;;
27357;SDS011;14831;50.474;7.616;2022-07-11T12:44:55;5.1;;;4.6;;
27357;SDS011;14831;50.474;7.616;2022-07-11T12:49:53;7.2;;;5.0;;
27357;SDS011;14831;50.474;7.616;2022-07-11T12:55:00;7.2;;;5.0;;
27357;SDS011;14831;50.474;7.616;2022-07-11T12:59:53;7.2;;;5.0;;
27357;SDS011;14831;50.474;7.616;2022-07-11T13:04:53;7.2;;;5.0;;
27357;SDS011;14831;50.474;7.616;2022-07-11T13:09:53;7.2;;;5.0;;
27357;SDS011;14831;50.474;7.616;2022-07-11T13:14:57;7.2;;;5.0;;
27357;SDS011;14831;50.474;7.616;2022-07-11T13:19:53;7.8;;;5.5;;
27357;SDS011;14831;50.474;7.616;2022-07-11T13:24:53;7.8;;;5.5;;
27357;SDS011;14831;50.474;7.616;2022-07-11T13:29:53;7.8;;;5.5;;
27357;SDS011;14831;50.474;7.616;2022-07-11T13:34:53;7.8;;;5.5;;
27357;SDS011;14831;50.474;7.616;2022-07-11T13:39:53;7.8;;;5.5;;
27357;SDS011;14831;50.474;7.616;2022-07-11T13:44:53;7.8;;;5.5;;
27357;SDS011;14831;50.474;7.616;2022-07-11T13:49:53;6.2;;;5.6;;
27357;SDS011;14831;50.474;7.616;2022-07-11T13:54:53;6.2;;;5.6;;
27357;SDS011;14831;50.474;7.616;2022-07-11T13:59:53;6.2;;;5.6;;
27357;SDS011;14831;50.474;7.616;2022-07-11T14:04:53;6.2;;;5.6;;
27357;SDS011;14831;50.474;7.616;2022-07-11T14:09:53;6.2;;;5.6;;
27357;SDS011;14831;50.474;7.616;2022-07-11T14:14:53;6.2;;;5.6;;
27357;SDS011;14831;50.474;7.616;2022-07-11T14:19:54;6.9;;;6.3;;
27357;SDS011;14831;50.474;7.616;2022-07-11T14:24:53;6.9;;;6.3;;
27357;SDS011;14831;50.474;7.616;2022-07-11T14:29:53;6.9;;;6.3;;
27357;SDS011;14831;50.474;7.616;2022-07-11T14:34:53;6.9;;;6.3;;
27357;SDS011;14831;50.474;7.616;2022-07-11T14:39:53;6.9;;;6.3;;
27357;SDS011;14831;50.474;7.616;2022-07-11T14:44:53;6.9;;;6.3;;
27357;SDS011;14831;50.474;7.616;2022-07-11T14:49:53;7.2;;;6.3;;
27357;SDS011;14831;50.474;7.616;2022-07-11T14:54:53;7.2;;;6.3;;
27357;SDS011;14831;50.474;7.616;2022-07-11T14:59:53;7.2;;;6.3;;
27357;SDS011;14831;50.474;7.616;2022-07-11T15:04:53;7.2;;;6.3;;
27357;SDS011;14831;50.474;7.616;2022-07-11T15:09:53;7.2;;;6.3;;
27357;SDS011;14831;50.474;7.616;2022-07-11T15:14:53;7.2;;;6.3;;
27357;SDS011;14831;50.474;7.616;2022-07-11T15:19:53;7.0;;;6.3;;
27357;SDS011;14831;50.474;7.616;2022-07-11T15:24:53;7.0;;;6.3;;
27357;SDS011;14831;50.474;7.616;2022-07-11T15:29:53;7.0;;;6.3;;
27357;SDS011;14831;50.474;7.616;2022-07-11T15:34:53;7.0;;;6.3;;
27357;SDS011;14831;50.474;7.616;2022-07-11T15:39:53;7.0;;;6.3;;
27357;SDS011;14831;50.474;7.616;2022-07-11T15:44:53;7.0;;;6.3;;
27357;SDS011;14831;50.474;7.616;2022-07-11T15:49:54;7.4;;;5.9;;
27357;SDS011;14831;50.474;7.616;2022-07-11T15:54:53;7.4;;;5.9;;
27357;SDS011;14831;50.474;7.616;2022-07-11T15:59:54;7.4;;;5.9;;
27357;SDS011;14831;50.474;7.616;2022-07-11T16:04:53;7.4;;;5.9;;
27357;SDS011;14831;50.474;7.616;2022-07-11T16:09:53;7.4;;;5.9;;
27357;SDS011;14831;50.474;7.616;2022-07-11T16:14:53;7.4;;;5.9;;
27357;SDS011;14831;50.474;7.616;2022-07-11T16:19:53;6.4;;;5.8;;
27357;SDS011;14831;50.474;7.616;2022-07-11T16:24:53;6.4;;;5.8;;
27357;SDS011;14831;50.474;7.616;2022-07-11T16:29:53;6.4;;;5.8;;
27357;SDS011;14831;50.474;7.616;2022-07-11T16:34:53;6.4;;;5.8;;
27357;SDS011;14831;50.474;7.616;2022-07-11T16:39:53;6.4;;;5.8;;
27357;SDS011;14831;50.474;7.616;2022-07-11T16:44:53;6.4;;;5.8;;
27357;SDS011;14831;50.474;7.616;2022-07-11T16:49:53;6.3;;;5.7;;
27357;SDS011;14831;50.474;7.616;2022-07-11T16:54:53;6.3;;;5.7;;
27357;SDS011;14831;50.474;7.616;2022-07-11T16:59:53;6.3;;;5.7;;
27357;SDS011;14831;50.474;7.616;2022-07-11T17:04:53;6.3;;;5.7;;
27357;SDS011;14831;50.474;7.616;2022-07-11T17:09:53;6.3;;;5.7;;
27357;SDS011;14831;50.474;7.616;2022-07-11T17:14:53;6.3;;;5.7;;
27357;SDS011;14831;50.474;7.616;2022-07-11T17:19:53;6.0;;;5.5;;
27357;SDS011;14831;50.474;7.616;2022-07-11T17:24:53;6.0;;;5.5;;
27357;SDS011;14831;50.474;7.616;2022-07-11T17:29:53;6.0;;;5.5;;
27357;SDS011;14831;50.474;7.616;2022-07-11T17:34:54;6.0;;;5.5;;
27357;SDS011;14831;50.474;7.616;2022-07-11T17:39:54;6.0;;;5.5;;
27357;SDS011;14831;50.474;7.616;2022-07-11T17:44:53;6.0;;;5.5;;
27357;SDS011;14831;50.474;7.616;2022-07-11T17:49:53;5.7;;;5.1;;
27357;SDS011;14831;50.474;7.616;2022-07-11T17:54:53;5.7;;;5.1;;
27357;SDS011;14831;50.474;7.616;2022-07-11T17:59:53;5.7;;;5.1;;
27357;SDS011;14831;50.474;7.616;2022-07-11T18:04:53;5.7;;;5.1;;
27357;SDS011;14831;50.474;7.616;2022-07-11T18:09:55;5.7;;;5.1;;
27357;SDS011;14831;50.474;7.616;2022-07-11T18:14:55;5.7;;;5.1;;
27357;SDS011;14831;50.474;7.616;2022-07-11T18:19:54;5.9;;;5.3;;
27357;SDS011;14831;50.474;7.616;2022-07-11T18:24:53;5.9;;;5.3;;
27357;SDS011;14831;50.474;7.616;2022-07-11T18:29:53;5.9;;;5.3;;
27357;SDS011;14831;50.474;7.616;2022-07-11T18:34:53;5.9;;;5.3;;
27357;SDS011;14831;50.474;7.616;2022-07-11T18:39:53;5.9;;;5.3;;
27357;SDS011;14831;50.474;7.616;2022-07-11T18:44:53;5.9;;;5.3;;
27357;SDS011;14831;50.474;7.616;2022-07-11T18:49:53;5.6;;;5.1;;
27357;SDS011;14831;50.474;7.616;2022-07-11T18:54:53;5.6;;;5.1;;
27357;SDS011;14831;50.474;7.616;2022-07-11T18:59:53;5.6;;;5.1;;
27357;SDS011;14831;50.474;7.616;2022-07-11T19:04:53;5.6;;;5.1;;
27357;SDS011;14831;50.474;7.616;2022-07-11T19:09:53;5.6;;;5.1;;
27357;SDS011;14831;50.474;7.616;2022-07-11T19:14:53;5.6;;;5.1;;
27357;SDS011;14831;50.474;7.616;2022-07-11T19:19:53;5.6;;;5.1;;
27357;SDS011;14831;50.474;7.616;2022-07-11T19:24:53;5.6;;;5.1;;
27357;SDS011;14831;50.474;7.616;2022-07-11T19:29:53;5.6;;;5.1;;
27357;SDS011;14831;50.474;7.616;2022-07-11T19:34:53;5.6;;;5.1;;
27357;SDS011;14831;50.474;7.616;2022-07-11T19:39:53;5.6;;;5.1;;
27357;SDS011;14831;50.474;7.616;2022-07-11T19:44:53;5.6;;;5.1;;
27357;SDS011;14831;50.474;7.616;2022-07-11T19:49:53;5.3;;;4.8;;
27357;SDS011;14831;50.474;7.616;2022-07-11T19:54:53;5.3;;;4.8;;
27357;SDS011;14831;50.474;7.616;2022-07-11T19:59:55;5.3;;;4.8;;
27357;SDS011;14831;50.474;7.616;2022-07-11T20:04:54;5.3;;;4.8;;
27357;SDS011;14831;50.474;7.616;2022-07-11T20:09:53;5.3;;;4.8;;
27357;SDS011;14831;50.474;7.616;2022-07-11T20:14:53;5.3;;;4.8;;
27357;SDS011;14831;50.474;7.616;2022-07-11T20:19:53;5.0;;;4.6;;
27357;SDS011;14831;50.474;7.616;2022-07-11T20:24:54;5.0;;;4.6;;
27357;SDS011;14831;50.474;7.616;2022-07-11T20:29:53;5.0;;;4.6;;
27357;SDS011;14831;50.474;7.616;2022-07-11T20:34:53;5.0;;;4.6;;
27357;SDS011;14831;50.474;7.616;2022-07-11T20:39:53;5.0;;;4.6;;
27357;SDS011;14831;50.474;7.616;2022-07-11T20:44:54;5.0;;;4.6;;
27357;SDS011;14831;50.474;7.616;2022-07-11T20:49:53;4.8;;;4.4;;
27357;SDS011;14831;50.474;7.616;2022-07-11T20:54:53;4.8;;;4.4;;
27357;SDS011;14831;50.474;7.616;2022-07-11T20:59:53;4.8;;;4.4;;
27357;SDS011;14831;50.474;7.616;2022-07-11T21:04:53;4.8;;;4.4;;
27357;SDS011;14831;50.474;7.616;2022-07-11T21:09:53;4.8;;;4.4;;
27357;SDS011;14831;50.474;7.616;2022-07-11T21:14:53;4.8;;;4.4;;
27357;SDS011;14831;50.474;7.616;2022-07-11T21:19:53;4.6;;;4.2;;
27357;SDS011;14831;50.474;7.616;2022-07-11T21:24:53;4.6;;;4.2;;
27357;SDS011;14831;50.474;7.616;2022-07-11T21:29:53;4.6;;;4.2;;
27357;SDS011;14831;50.474;7.616;2022-07-11T21:34:53;4.6;;;4.2;;
27357;SDS011;14831;50.474;7.616;2022-07-11T21:39:53;4.6;;;4.2;;
27357;SDS011;14831;50.474;7.616;2022-07-11T21:44:53;4.6;;;4.2;;
27357;SDS011;14831;50.474;7.616;2022-07-11T21:49:53;4.9;;;4.5;;
27357;SDS011;14831;50.474;7.616;2022-07-11T21:54:53;4.9;;;4.5;;
27357;SDS011;14831;50.474;7.616;2022-07-11T21:59:53;4.9;;;4.5;;
27357;SDS011;14831;50.474;7.616;2022-07-11T22:04:54;4.9;;;4.5;;
27357;SDS011;14831;50.474;7.616;2022-07-11T22:09:53;4.9;;;4.5;;
27357;SDS011;14831;50.474;7.616;2022-07-11T22:14:53;4.9;;;4.5;;
27357;SDS011;14831;50.474;7.616;2022-07-11T22:19:53;5.3;;;4.8;;
27357;SDS011;14831;50.474;7.616;2022-07-11T22:24:53;5.3;;;4.8;;
27357;SDS011;14831;50.474;7.616;2022-07-11T22:29:53;5.3;;;4.8;;
27357;SDS011;14831;50.474;7.616;2022-07-11T22:34:53;5.3;;;4.8;;
27357;SDS011;14831;50.474;7.616;2022-07-11T22:39:53;5.3;;;4.8;;
27357;SDS011;14831;50.474;7.616;2022-07-11T22:44:54;5.3;;;4.8;;
27357;SDS011;14831;50.474;7.616;2022-07-11T22:49:53;5.4;;;4.9;;
27357;SDS011;14831;50.474;7.616;2022-07-11T22:54:53;5.4;;;4.9;;
27357;SDS011;14831;50.474;7.616;2022-07-11T22:59:53;5.4;;;4.9;;
27357;SDS011;14831;50.474;7.616;2022-07-11T23:04:53;5.4;;;4.9;;
27357;SDS011;14831;50.474;7.616;2022-07-11T23:09:53;5.4;;;4.9;;
27357;SDS011;14831;50.474;7.616;2022-07-11T23:14:53;5.4;;;4.9;;
27357;SDS011;14831;50.474;7.616;2022-07-11T23:19:54;5.2;;;4.7;;
27357;SDS011;14831;50.474;7.616;2022-07-11T23:24:53;5.2;;;4.7;;
27357;SDS011;14831;50.474;7.616;2022-07-11T23:29:53;5.2;;;4.7;;
27357;SDS011;14831;50.474;7.616;2022-07-11T23:34:53;5.2;;;4.7;;
27357;SDS011;14831;50.474;7.616;2022-07-11T23:39:53;5.2;;;4.7;;
27357;SDS011;14831;50.474;7.616;2022-07-11T23:44:54;5.2;;;4.7;;
27357;SDS011;14831;50.474;7.616;2022-07-11T23:49:53;5.2;;;4.8;;
27357;SDS011;14831;50.474;7.616;2022-07-11T23:54:54;5.2;;;4.8;;
27357;SDS011;14831;50.474;7.616;2022-07-11T23:59:53;5.2;;;4.8;;
